createdAt,value
2024-04-15T00:19:22.622Z,17.05
2024-04-15T00:48:17.484Z,16.94
2024-04-15T01:17:06.803Z,16.86
2024-04-15T01:46:02.143Z,16.5
2024-04-15T02:14:51.267Z,16.52
2024-04-15T02:43:43.126Z,16.19
2024-04-15T03:12:37.430Z,15.79
2024-04-15T03:41:19.979Z,15.45
2024-04-15T04:10:14.685Z,15.1
2024-04-15T04:39:04.226Z,15
2024-04-15T05:07:52.710Z,14.72
2024-04-15T05:36:34.592Z,14.57
2024-04-15T06:05:19.496Z,14.43
2024-04-15T06:33:47.395Z,14.91
2024-04-15T07:02:31.299Z,15.06
2024-04-15T07:31:07.621Z,14.84
2024-04-15T07:59:40.447Z,15.24
2024-04-15T08:28:28.313Z,15.41
2024-04-15T08:57:11.256Z,17.22
2024-04-15T09:25:53.157Z,17.35
2024-04-15T09:54:54.763Z,18.07
2024-04-15T10:23:32.455Z,17.38
2024-04-15T10:52:10.629Z,16.69
2024-04-15T11:20:44.413Z,16.04
2024-04-15T11:49:25.157Z,16.48
2024-04-15T12:18:11.010Z,17.21
2024-04-15T12:46:48.868Z,18.17
2024-04-15T13:15:33.849Z,19.02
2024-04-15T13:44:12.982Z,18.08
2024-04-15T14:13:10.131Z,19.3
2024-04-15T14:42:01.913Z,20.59
2024-04-15T15:10:35.490Z,19.73
2024-04-15T15:39:07.894Z,18.51
2024-04-15T16:07:24.646Z,17.87
2024-04-15T16:36:01.193Z,17.29
2024-04-15T17:33:12.096Z,15.76
2024-04-15T18:01:40.880Z,15.41
2024-04-15T18:30:23.185Z,15.22
2024-04-15T18:58:51.893Z,10.13
2024-04-15T19:27:41.262Z,9.58
2024-04-15T19:56:21.528Z,9.24
2024-04-15T20:25:10.848Z,9.91
2024-04-15T20:53:54.239Z,9.68
2024-04-15T21:22:37.515Z,9.13
2024-04-15T21:51:10.984Z,8.76
2024-04-15T22:19:57.229Z,8.14
2024-04-15T22:48:51.447Z,8.32
2024-04-15T23:17:43.501Z,8.22
2024-04-15T23:46:28.875Z,8.25
